sensor_id;sensor_type;location;lat;lon;timestamp;pressure;altitude;pressure_sealevel;temperature;humidity
37304;BME280;23188;51.188;16.374;2023-11-21T00:03:34;99438.12;;;9.33;100.00
37304;BME280;23188;51.188;16.374;2023-11-21T00:07:38;99438.57;;;9.32;100.00
37304;BME280;23188;51.188;16.374;2023-11-21T00:11:41;99436.67;;;9.31;100.00
37304;BME280;23188;51.188;16.374;2023-11-21T00:15:44;99440.73;;;9.29;100.00
37304;BME280;23188;51.188;16.374;2023-11-21T00:19:47;99437.27;;;9.24;100.00
37304;BME280;23188;51.188;16.374;2023-11-21T00:23:51;99441.85;;;9.19;100.00
37304;BME280;23188;51.188;16.374;2023-11-21T00:27:54;99446.08;;;9.21;100.00
37304;BME280;23188;51.188;16.374;2023-11-21T00:31:57;99448.66;;;9.19;100.00
37304;BME280;23188;51.188;16.374;2023-11-21T00:36:00;99448.61;;;9.20;100.00
37304;BME280;23188;51.188;16.374;2023-11-21T00:40:04;99448.97;;;9.24;100.00
37304;BME280;23188;51.188;16.374;2023-11-21T00:44:10;99447.37;;;9.22;100.00
37304;BME280;23188;51.188;16.374;2023-11-21T00:48:13;99442.59;;;9.28;100.00
37304;BME280;23188;51.188;16.374;2023-11-21T00:52:16;99443.27;;;9.31;100.00
37304;BME280;23188;51.188;16.374;2023-11-21T00:56:19;99447.48;;;9.31;100.00
37304;BME280;23188;51.188;16.374;2023-11-21T01:00:22;99450.41;;;9.34;100.00
37304;BME280;23188;51.188;16.374;2023-11-21T01:04:26;99450.77;;;9.38;100.00
37304;BME280;23188;51.188;16.374;2023-11-21T01:08:29;99451.79;;;9.35;100.00
37304;BME280;23188;51.188;16.374;2023-11-21T01:12:34;99450.14;;;9.21;100.00
37304;BME280;23188;51.188;16.374;2023-11-21T01:16:38;99452.55;;;9.16;100.00
37304;BME280;23188;51.188;16.374;2023-11-21T01:20:41;99449.16;;;9.18;100.00
37304;BME280;23188;51.188;16.374;2023-11-21T01:24:44;99450.27;;;9.25;100.00
37304;BME280;23188;51.188;16.374;2023-11-21T01:28:47;99455.39;;;9.28;100.00
37304;BME280;23188;51.188;16.374;2023-11-21T01:32:51;99455.71;;;9.24;100.00
37304;BME280;23188;51.188;16.374;2023-11-21T01:36:55;99462.63;;;9.20;100.00
37304;BME280;23188;51.188;16.374;2023-11-21T01:40:58;99455.02;;;9.22;100.00
37304;BME280;23188;51.188;16.374;2023-11-21T01:45:03;99459.85;;;9.27;100.00
37304;BME280;23188;51.188;16.374;2023-11-21T01:49:09;99458.85;;;9.37;100.00
37304;BME280;23188;51.188;16.374;2023-11-21T01:53:15;99460.57;;;9.37;100.00
37304;BME280;23188;51.188;16.374;2023-11-21T01:57:19;99461.31;;;9.31;100.00
37304;BME280;23188;51.188;16.374;2023-11-21T02:01:23;99461.56;;;9.36;100.00
37304;BME280;23188;51.188;16.374;2023-11-21T02:05:26;99462.88;;;9.39;100.00
37304;BME280;23188;51.188;16.374;2023-11-21T02:09:29;99467.38;;;9.38;100.00
37304;BME280;23188;51.188;16.374;2023-11-21T02:13:33;99473.36;;;9.38;100.00
37304;BME280;23188;51.188;16.374;2023-11-21T02:17:37;99472.19;;;9.42;100.00
37304;BME280;23188;51.188;16.374;2023-11-21T02:21:40;99473.94;;;9.46;100.00
37304;BME280;23188;51.188;16.374;2023-11-21T02:25:43;99473.27;;;9.41;100.00
37304;BME280;23188;51.188;16.374;2023-11-21T02:29:46;99472.71;;;9.46;100.00
37304;BME280;23188;51.188;16.374;2023-11-21T02:33:50;99474.31;;;9.48;100.00
37304;BME280;23188;51.188;16.374;2023-11-21T02:37:53;99476.86;;;9.49;100.00
37304;BME280;23188;51.188;16.374;2023-11-21T02:41:57;99481.88;;;9.56;100.00
37304;BME280;23188;51.188;16.374;2023-11-21T02:46:00;99481.23;;;9.52;100.00
37304;BME280;23188;51.188;16.374;2023-11-21T02:50:03;99482.36;;;9.49;100.00
37304;BME280;23188;51.188;16.374;2023-11-21T02:54:07;99482.60;;;9.48;100.00
37304;BME280;23188;51.188;16.374;2023-11-21T02:58:11;99488.15;;;9.45;100.00
37304;BME280;23188;51.188;16.374;2023-11-21T03:02:14;99493.09;;;9.40;100.00
37304;BME280;23188;51.188;16.374;2023-11-21T03:06:19;99498.05;;;9.35;100.00
37304;BME280;23188;51.188;16.374;2023-11-21T03:10:22;99502.30;;;9.27;100.00
37304;BME280;23188;51.188;16.374;2023-11-21T03:14:26;99506.95;;;9.25;100.00
37304;BME280;23188;51.188;16.374;2023-11-21T03:18:29;99504.40;;;9.25;100.00
37304;BME280;23188;51.188;16.374;2023-11-21T03:22:32;99506.54;;;9.19;100.00
37304;BME280;23188;51.188;16.374;2023-11-21T03:26:36;99505.63;;;9.11;100.00
37304;BME280;23188;51.188;16.374;2023-11-21T03:30:40;99509.84;;;9.10;100.00
37304;BME280;23188;51.188;16.374;2023-11-21T03:34:53;99511.94;;;9.10;100.00
37304;BME280;23188;51.188;16.374;2023-11-21T03:38:58;99512.36;;;9.13;100.00
37304;BME280;23188;51.188;16.374;2023-11-21T03:43:01;99515.42;;;9.10;100.00
37304;BME280;23188;51.188;16.374;2023-11-21T03:47:04;99514.51;;;9.07;100.00
37304;BME280;23188;51.188;16.374;2023-11-21T03:51:08;99522.65;;;9.07;100.00
37304;BME280;23188;51.188;16.374;2023-11-21T03:55:11;99517.35;;;9.07;100.00
37304;BME280;23188;51.188;16.374;2023-11-21T03:59:14;99519.00;;;9.00;100.00
37304;BME280;23188;51.188;16.374;2023-11-21T04:03:17;99523.80;;;9.08;100.00
37304;BME280;23188;51.188;16.374;2023-11-21T04:07:21;99520.03;;;9.17;100.00
37304;BME280;23188;51.188;16.374;2023-11-21T04:11:24;99524.71;;;9.18;100.00
37304;BME280;23188;51.188;16.374;2023-11-21T04:15:27;99523.97;;;9.16;100.00
37304;BME280;23188;51.188;16.374;2023-11-21T04:19:30;99527.48;;;9.18;100.00
37304;BME280;23188;51.188;16.374;2023-11-21T04:23:34;99533.93;;;9.14;100.00
37304;BME280;23188;51.188;16.374;2023-11-21T04:27:39;99535.92;;;9.17;100.00
37304;BME280;23188;51.188;16.374;2023-11-21T04:31:42;99541.41;;;9.21;100.00
37304;BME280;23188;51.188;16.374;2023-11-21T04:35:45;99545.13;;;9.29;100.00
37304;BME280;23188;51.188;16.374;2023-11-21T04:39:49;99543.48;;;9.36;100.00
37304;BME280;23188;51.188;16.374;2023-11-21T04:43:52;99547.55;;;9.44;100.00
37304;BME280;23188;51.188;16.374;2023-11-21T04:47:55;99548.72;;;9.43;100.00
37304;BME280;23188;51.188;16.374;2023-11-21T04:51:59;99552.66;;;9.38;100.00
37304;BME280;23188;51.188;16.374;2023-11-21T04:56:02;99557.42;;;9.38;100.00
37304;BME280;23188;51.188;16.374;2023-11-21T05:00:06;99559.98;;;9.33;100.00
37304;BME280;23188;51.188;16.374;2023-11-21T05:04:10;99565.10;;;9.36;100.00
37304;BME280;23188;51.188;16.374;2023-11-21T05:08:13;99565.90;;;9.41;100.00
37304;BME280;23188;51.188;16.374;2023-11-21T05:12:16;99568.96;;;9.46;100.00
37304;BME280;23188;51.188;16.374;2023-11-21T05:16:19;99570.50;;;9.47;100.00
37304;BME280;23188;51.188;16.374;2023-11-21T05:20:23;99573.95;;;9.48;100.00
37304;BME280;23188;51.188;16.374;2023-11-21T05:24:26;99577.52;;;9.43;100.00
37304;BME280;23188;51.188;16.374;2023-11-21T05:28:32;99575.95;;;9.47;100.00
37304;BME280;23188;51.188;16.374;2023-11-21T05:32:35;99575.23;;;9.47;100.00
37304;BME280;23188;51.188;16.374;2023-11-21T05:36:38;99574.70;;;9.51;100.00
37304;BME280;23188;51.188;16.374;2023-11-21T05:40:41;99580.95;;;9.56;100.00
37304;BME280;23188;51.188;16.374;2023-11-21T05:44:45;99586.84;;;9.60;100.00
37304;BME280;23188;51.188;16.374;2023-11-21T05:48:48;99592.23;;;9.65;100.00
37304;BME280;23188;51.188;16.374;2023-11-21T05:52:51;99593.63;;;9.69;100.00
37304;BME280;23188;51.188;16.374;2023-11-21T05:56:54;99589.11;;;9.69;100.00
37304;BME280;23188;51.188;16.374;2023-11-21T06:00:57;99589.77;;;9.69;100.00
37304;BME280;23188;51.188;16.374;2023-11-21T06:05:00;99592.66;;;9.70;100.00
37304;BME280;23188;51.188;16.374;2023-11-21T06:09:04;99598.55;;;9.72;100.00
37304;BME280;23188;51.188;16.374;2023-11-21T06:13:08;99599.98;;;9.69;100.00
37304;BME280;23188;51.188;16.374;2023-11-21T06:17:13;99603.86;;;9.66;100.00
37304;BME280;23188;51.188;16.374;2023-11-21T06:21:16;99611.80;;;9.64;100.00
37304;BME280;23188;51.188;16.374;2023-11-21T06:25:20;99615.04;;;9.59;100.00
37304;BME280;23188;51.188;16.374;2023-11-21T06:29:24;99622.11;;;9.60;100.00
37304;BME280;23188;51.188;16.374;2023-11-21T06:33:28;99632.88;;;9.58;100.00
37304;BME280;23188;51.188;16.374;2023-11-21T06:37:31;99630.55;;;9.60;100.00
37304;BME280;23188;51.188;16.374;2023-11-21T06:41:35;99627.91;;;9.62;100.00
37304;BME280;23188;51.188;16.374;2023-11-21T06:45:41;99630.59;;;9.60;100.00
37304;BME280;23188;51.188;16.374;2023-11-21T06:49:45;99636.63;;;9.62;100.00
37304;BME280;23188;51.188;16.374;2023-11-21T06:53:50;99643.03;;;9.63;100.00
37304;BME280;23188;51.188;16.374;2023-11-21T06:57:54;99638.58;;;9.66;100.00
37304;BME280;23188;51.188;16.374;2023-11-21T07:01:57;99641.20;;;9.72;100.00
37304;BME280;23188;51.188;16.374;2023-11-21T07:06:00;99641.13;;;9.77;100.00
37304;BME280;23188;51.188;16.374;2023-11-21T07:10:03;99640.53;;;9.80;100.00
37304;BME280;23188;51.188;16.374;2023-11-21T07:14:06;99642.15;;;9.79;100.00
37304;BME280;23188;51.188;16.374;2023-11-21T07:18:13;99640.05;;;9.79;100.00
37304;BME280;23188;51.188;16.374;2023-11-21T07:22:16;99637.53;;;9.79;100.00
37304;BME280;23188;51.188;16.374;2023-11-21T07:26:24;99638.66;;;9.79;100.00
37304;BME280;23188;51.188;16.374;2023-11-21T07:30:28;99641.98;;;9.81;100.00
37304;BME280;23188;51.188;16.374;2023-11-21T07:34:31;99639.32;;;9.85;100.00
37304;BME280;23188;51.188;16.374;2023-11-21T07:38:35;99643.27;;;9.87;100.00
37304;BME280;23188;51.188;16.374;2023-11-21T07:42:38;99646.67;;;9.92;100.00
37304;BME280;23188;51.188;16.374;2023-11-21T07:46:41;99651.71;;;9.94;100.00
37304;BME280;23188;51.188;16.374;2023-11-21T07:50:44;99654.15;;;9.96;100.00
37304;BME280;23188;51.188;16.374;2023-11-21T07:54:49;99656.38;;;9.99;100.00
37304;BME280;23188;51.188;16.374;2023-11-21T07:58:53;99659.46;;;9.96;100.00
37304;BME280;23188;51.188;16.374;2023-11-21T08:02:57;99662.78;;;9.86;100.00
37304;BME280;23188;51.188;16.374;2023-11-21T08:07:00;99671.83;;;9.72;100.00
37304;BME280;23188;51.188;16.374;2023-11-21T08:11:04;99671.90;;;9.69;100.00
37304;BME280;23188;51.188;16.374;2023-11-21T08:15:08;99674.86;;;9.58;100.00
37304;BME280;23188;51.188;16.374;2023-11-21T08:19:12;99679.05;;;9.66;100.00
37304;BME280;23188;51.188;16.374;2023-11-21T08:23:15;99678.75;;;9.70;100.00
37304;BME280;23188;51.188;16.374;2023-11-21T08:27:19;99679.42;;;9.60;100.00
37304;BME280;23188;51.188;16.374;2023-11-21T08:31:25;99677.11;;;9.58;100.00
37304;BME280;23188;51.188;16.374;2023-11-21T08:35:29;99686.79;;;9.57;100.00
37304;BME280;23188;51.188;16.374;2023-11-21T08:39:32;99689.69;;;9.62;100.00
37304;BME280;23188;51.188;16.374;2023-11-21T08:43:36;99687.38;;;9.64;100.00
37304;BME280;23188;51.188;16.374;2023-11-21T08:47:42;99687.84;;;9.61;100.00
37304;BME280;23188;51.188;16.374;2023-11-21T08:51:47;99684.41;;;9.55;100.00
37304;BME280;23188;51.188;16.374;2023-11-21T08:55:50;99685.98;;;9.48;100.00
37304;BME280;23188;51.188;16.374;2023-11-21T08:59:53;99687.23;;;9.45;100.00
37304;BME280;23188;51.188;16.374;2023-11-21T09:03:58;99689.02;;;9.49;100.00
37304;BME280;23188;51.188;16.374;2023-11-21T09:08:01;99693.50;;;9.43;100.00
37304;BME280;23188;51.188;16.374;2023-11-21T09:12:04;99699.98;;;9.43;100.00
37304;BME280;23188;51.188;16.374;2023-11-21T09:16:08;99699.38;;;9.40;100.00
37304;BME280;23188;51.188;16.374;2023-11-21T09:20:11;99699.21;;;9.44;100.00
37304;BME280;23188;51.188;16.374;2023-11-21T09:24:14;99705.14;;;9.41;100.00
37304;BME280;23188;51.188;16.374;2023-11-21T09:28:17;99706.84;;;9.48;100.00
37304;BME280;23188;51.188;16.374;2023-11-21T09:32:20;99711.20;;;9.40;100.00
37304;BME280;23188;51.188;16.374;2023-11-21T09:36:24;99706.90;;;9.45;100.00
37304;BME280;23188;51.188;16.374;2023-11-21T09:40:30;99704.55;;;9.52;100.00
37304;BME280;23188;51.188;16.374;2023-11-21T09:44:58;99706.29;;;9.54;100.00
37304;BME280;23188;51.188;16.374;2023-11-21T09:49:01;99712.00;;;9.58;100.00
37304;BME280;23188;51.188;16.374;2023-11-21T09:57:20;99719.41;;;9.60;100.00
37304;BME280;23188;51.188;16.374;2023-11-21T10:01:24;99719.83;;;9.59;100.00
37304;BME280;23188;51.188;16.374;2023-11-21T10:05:28;99717.06;;;9.48;100.00
37304;BME280;23188;51.188;16.374;2023-11-21T10:09:31;99724.46;;;9.57;100.00
37304;BME280;23188;51.188;16.374;2023-11-21T10:13:35;99725.30;;;9.58;100.00
37304;BME280;23188;51.188;16.374;2023-11-21T10:17:38;99732.75;;;9.64;100.00
37304;BME280;23188;51.188;16.374;2023-11-21T10:21:46;99733.27;;;9.64;100.00
37304;BME280;23188;51.188;16.374;2023-11-21T10:25:49;99734.18;;;9.74;100.00
37304;BME280;23188;51.188;16.374;2023-11-21T10:29:53;99733.84;;;9.75;100.00
37304;BME280;23188;51.188;16.374;2023-11-21T10:38:15;99736.54;;;9.79;100.00
37304;BME280;23188;51.188;16.374;2023-11-21T10:42:18;99743.09;;;9.87;100.00
37304;BME280;23188;51.188;16.374;2023-11-21T10:46:23;99742.31;;;9.88;100.00
37304;BME280;23188;51.188;16.374;2023-11-21T10:50:28;99749.27;;;9.79;100.00
37304;BME280;23188;51.188;16.374;2023-11-21T10:54:31;99761.36;;;9.64;100.00
37304;BME280;23188;51.188;16.374;2023-11-21T10:58:35;99770.86;;;9.44;100.00
37304;BME280;23188;51.188;16.374;2023-11-21T11:02:38;99769.38;;;9.22;100.00
37304;BME280;23188;51.188;16.374;2023-11-21T11:06:43;99776.95;;;8.95;100.00
37304;BME280;23188;51.188;16.374;2023-11-21T11:10:46;99788.08;;;8.67;100.00
37304;BME280;23188;51.188;16.374;2023-11-21T11:14:50;99794.40;;;8.44;100.00
37304;BME280;23188;51.188;16.374;2023-11-21T11:18:54;99799.80;;;8.17;100.00
37304;BME280;23188;51.188;16.374;2023-11-21T11:27:37;99809.52;;;7.76;100.00
37304;BME280;23188;51.188;16.374;2023-11-21T11:32:09;99811.60;;;7.51;100.00
37304;BME280;23188;51.188;16.374;2023-11-21T11:36:44;99824.08;;;7.28;100.00
37304;BME280;23188;51.188;16.374;2023-11-21T11:40:46;99825.65;;;7.07;100.00
37304;BME280;23188;51.188;16.374;2023-11-21T11:44:50;99827.27;;;6.92;100.00
37304;BME280;23188;51.188;16.374;2023-11-21T11:49:02;99830.02;;;6.80;100.00
37304;BME280;23188;51.188;16.374;2023-11-21T11:53:13;99845.05;;;6.70;100.00
37304;BME280;23188;51.188;16.374;2023-11-21T11:57:17;99845.15;;;6.59;100.00
37304;BME280;23188;51.188;16.374;2023-11-21T12:01:20;99852.34;;;6.42;100.00
37304;BME280;23188;51.188;16.374;2023-11-21T12:05:23;99854.98;;;6.24;100.00
37304;BME280;23188;51.188;16.374;2023-11-21T12:09:31;99869.66;;;6.11;100.00
37304;BME280;23188;51.188;16.374;2023-11-21T12:13:34;99869.16;;;5.97;100.00
37304;BME280;23188;51.188;16.374;2023-11-21T12:17:37;99870.04;;;5.89;100.00
37304;BME280;23188;51.188;16.374;2023-11-21T12:21:41;99878.09;;;5.84;100.00
37304;BME280;23188;51.188;16.374;2023-11-21T12:25:44;99882.91;;;5.79;100.00
37304;BME280;23188;51.188;16.374;2023-11-21T12:29:48;99887.35;;;5.78;100.00
37304;BME280;23188;51.188;16.374;2023-11-21T12:33:51;99903.33;;;5.73;100.00
37304;BME280;23188;51.188;16.374;2023-11-21T12:37:55;99906.45;;;5.66;100.00
37304;BME280;23188;51.188;16.374;2023-11-21T12:42:00;99910.04;;;5.54;100.00
37304;BME280;23188;51.188;16.374;2023-11-21T12:46:05;99918.14;;;5.38;100.00
37304;BME280;23188;51.188;16.374;2023-11-21T12:50:09;99918.90;;;5.26;100.00
37304;BME280;23188;51.188;16.374;2023-11-21T12:54:18;99926.92;;;5.17;100.00
37304;BME280;23188;51.188;16.374;2023-11-21T12:58:22;99931.41;;;5.15;100.00
37304;BME280;23188;51.188;16.374;2023-11-21T13:02:29;99940.55;;;5.10;100.00
37304;BME280;23188;51.188;16.374;2023-11-21T13:06:33;99948.61;;;5.05;100.00
37304;BME280;23188;51.188;16.374;2023-11-21T13:10:43;99959.70;;;4.98;100.00
37304;BME280;23188;51.188;16.374;2023-11-21T13:14:49;99966.27;;;4.92;100.00
37304;BME280;23188;51.188;16.374;2023-11-21T13:18:52;99973.23;;;4.87;100.00
37304;BME280;23188;51.188;16.374;2023-11-21T13:22:57;99981.87;;;4.84;100.00
37304;BME280;23188;51.188;16.374;2023-11-21T13:27:02;99993.36;;;4.80;100.00
37304;BME280;23188;51.188;16.374;2023-11-21T13:31:05;99998.27;;;4.75;100.00
37304;BME280;23188;51.188;16.374;2023-11-21T13:35:25;100002.64;;;4.72;100.00
37304;BME280;23188;51.188;16.374;2023-11-21T13:39:55;100006.00;;;4.68;100.00
37304;BME280;23188;51.188;16.374;2023-11-21T13:43:59;100004.88;;;4.73;100.00
37304;BME280;23188;51.188;16.374;2023-11-21T13:48:30;100014.25;;;4.72;100.00
37304;BME280;23188;51.188;16.374;2023-11-21T13:52:43;100028.54;;;4.62;100.00
37304;BME280;23188;51.188;16.374;2023-11-21T13:56:46;100035.35;;;4.57;100.00
37304;BME280;23188;51.188;16.374;2023-11-21T14:00:50;100045.14;;;4.51;100.00
37304;BME280;23188;51.188;16.374;2023-11-21T14:04:59;100062.40;;;4.42;100.00
37304;BME280;23188;51.188;16.374;2023-11-21T14:09:05;100065.64;;;4.35;100.00
37304;BME280;23188;51.188;16.374;2023-11-21T14:13:10;100068.59;;;4.32;100.00
37304;BME280;23188;51.188;16.374;2023-11-21T14:17:13;100075.89;;;4.30;100.00
37304;BME280;23188;51.188;16.374;2023-11-21T14:21:16;100085.88;;;4.25;100.00
37304;BME280;23188;51.188;16.374;2023-11-21T14:25:20;100095.39;;;4.21;100.00
37304;BME280;23188;51.188;16.374;2023-11-21T14:29:25;100105.45;;;4.17;100.00
37304;BME280;23188;51.188;16.374;2023-11-21T14:33:30;100111.59;;;4.14;100.00
37304;BME280;23188;51.188;16.374;2023-11-21T14:37:33;100125.57;;;4.06;100.00
37304;BME280;23188;51.188;16.374;2023-11-21T14:41:36;100127.49;;;4.00;100.00
37304;BME280;23188;51.188;16.374;2023-11-21T14:45:41;100132.00;;;3.95;100.00
37304;BME280;23188;51.188;16.374;2023-11-21T14:49:44;100132.61;;;3.86;100.00
37304;BME280;23188;51.188;16.374;2023-11-21T14:53:57;100134.14;;;3.81;100.00
37304;BME280;23188;51.188;16.374;2023-11-21T14:58:08;100140.27;;;3.81;100.00
37304;BME280;23188;51.188;16.374;2023-11-21T15:02:15;100144.62;;;3.82;100.00
37304;BME280;23188;51.188;16.374;2023-11-21T15:06:23;100151.02;;;3.80;100.00
37304;BME280;23188;51.188;16.374;2023-11-21T15:10:32;100158.10;;;3.79;100.00
37304;BME280;23188;51.188;16.374;2023-11-21T15:14:49;100161.87;;;3.75;100.00
37304;BME280;23188;51.188;16.374;2023-11-21T15:18:57;100166.80;;;3.64;100.00
37304;BME280;23188;51.188;16.374;2023-11-21T15:23:01;100173.80;;;3.55;100.00
37304;BME280;23188;51.188;16.374;2023-11-21T15:27:05;100180.67;;;3.51;100.00
37304;BME280;23188;51.188;16.374;2023-11-21T15:31:10;100184.02;;;3.44;100.00
37304;BME280;23188;51.188;16.374;2023-11-21T15:35:13;100181.67;;;3.36;100.00
37304;BME280;23188;51.188;16.374;2023-11-21T15:39:17;100193.86;;;3.30;100.00
37304;BME280;23188;51.188;16.374;2023-11-21T15:43:20;100200.95;;;3.25;100.00
37304;BME280;23188;51.188;16.374;2023-11-21T15:47:23;100209.45;;;3.24;100.00
37304;BME280;23188;51.188;16.374;2023-11-21T15:51:27;100221.95;;;3.23;100.00
37304;BME280;23188;51.188;16.374;2023-11-21T15:55:30;100233.94;;;3.18;100.00
37304;BME280;23188;51.188;16.374;2023-11-21T15:59:33;100245.65;;;3.15;100.00
37304;BME280;23188;51.188;16.374;2023-11-21T16:03:37;100249.79;;;3.13;100.00
37304;BME280;23188;51.188;16.374;2023-11-21T16:07:41;100260.30;;;3.06;100.00
37304;BME280;23188;51.188;16.374;2023-11-21T16:11:44;100266.87;;;3.01;100.00
37304;BME280;23188;51.188;16.374;2023-11-21T16:15:47;100265.68;;;3.00;100.00
37304;BME280;23188;51.188;16.374;2023-11-21T16:19:53;100266.23;;;2.96;100.00
37304;BME280;23188;51.188;16.374;2023-11-21T16:23:58;100270.79;;;2.89;100.00
37304;BME280;23188;51.188;16.374;2023-11-21T16:28:01;100273.61;;;2.81;100.00
37304;BME280;23188;51.188;16.374;2023-11-21T16:32:07;100286.95;;;2.74;100.00
37304;BME280;23188;51.188;16.374;2023-11-21T16:36:10;100291.92;;;2.68;100.00
37304;BME280;23188;51.188;16.374;2023-11-21T16:40:13;100294.30;;;2.66;100.00
37304;BME280;23188;51.188;16.374;2023-11-21T16:44:16;100304.00;;;2.65;100.00
37304;BME280;23188;51.188;16.374;2023-11-21T16:48:20;100306.63;;;2.65;100.00
37304;BME280;23188;51.188;16.374;2023-11-21T16:52:23;100314.96;;;2.66;100.00
37304;BME280;23188;51.188;16.374;2023-11-21T16:56:26;100325.17;;;2.65;100.00
37304;BME280;23188;51.188;16.374;2023-11-21T17:00:30;100327.34;;;2.60;100.00
37304;BME280;23188;51.188;16.374;2023-11-21T17:04:33;100334.92;;;2.56;100.00
37304;BME280;23188;51.188;16.374;2023-11-21T17:08:37;100341.39;;;2.52;100.00
37304;BME280;23188;51.188;16.374;2023-11-21T17:12:40;100351.10;;;2.50;100.00
37304;BME280;23188;51.188;16.374;2023-11-21T17:16:43;100362.38;;;2.52;100.00
37304;BME280;23188;51.188;16.374;2023-11-21T17:20:48;100366.05;;;2.49;100.00
37304;BME280;23188;51.188;16.374;2023-11-21T17:24:51;100371.20;;;2.48;100.00
37304;BME280;23188;51.188;16.374;2023-11-21T17:28:54;100372.48;;;2.46;100.00
37304;BME280;23188;51.188;16.374;2023-11-21T17:32:59;100378.89;;;2.48;100.00
37304;BME280;23188;51.188;16.374;2023-11-21T17:37:02;100387.77;;;2.45;100.00
37304;BME280;23188;51.188;16.374;2023-11-21T17:41:06;100399.72;;;2.40;100.00
37304;BME280;23188;51.188;16.374;2023-11-21T17:45:14;100402.73;;;2.35;100.00
37304;BME280;23188;51.188;16.374;2023-11-21T17:49:17;100401.57;;;2.26;100.00
37304;BME280;23188;51.188;16.374;2023-11-21T17:53:20;100408.12;;;2.16;100.00
37304;BME280;23188;51.188;16.374;2023-11-21T17:57:24;100409.98;;;2.06;100.00
37304;BME280;23188;51.188;16.374;2023-11-21T18:01:28;100414.73;;;2.01;100.00
37304;BME280;23188;51.188;16.374;2023-11-21T18:05:36;100422.55;;;1.94;100.00
37304;BME280;23188;51.188;16.374;2023-11-21T18:09:40;100430.02;;;1.88;100.00
37304;BME280;23188;51.188;16.374;2023-11-21T18:13:42;100435.38;;;1.85;100.00
37304;BME280;23188;51.188;16.374;2023-11-21T18:17:45;100430.14;;;1.84;100.00
37304;BME280;23188;51.188;16.374;2023-11-21T18:21:48;100437.67;;;1.89;100.00
37304;BME280;23188;51.188;16.374;2023-11-21T18:25:51;100443.86;;;1.87;100.00
37304;BME280;23188;51.188;16.374;2023-11-21T18:29:55;100449.36;;;1.85;100.00
37304;BME280;23188;51.188;16.374;2023-11-21T18:33:58;100454.92;;;1.86;100.00
37304;BME280;23188;51.188;16.374;2023-11-21T18:38:02;100458.23;;;1.87;100.00
37304;BME280;23188;51.188;16.374;2023-11-21T18:42:05;100460.86;;;1.86;100.00
37304;BME280;23188;51.188;16.374;2023-11-21T18:46:08;100464.80;;;1.83;100.00
37304;BME280;23188;51.188;16.374;2023-11-21T18:50:12;100468.67;;;1.88;100.00
37304;BME280;23188;51.188;16.374;2023-11-21T18:54:20;100474.83;;;1.91;100.00
37304;BME280;23188;51.188;16.374;2023-11-21T18:58:23;100480.88;;;1.92;100.00
37304;BME280;23188;51.188;16.374;2023-11-21T19:02:26;100486.80;;;1.97;100.00
37304;BME280;23188;51.188;16.374;2023-11-21T19:06:30;100495.02;;;2.01;100.00
37304;BME280;23188;51.188;16.374;2023-11-21T19:10:33;100504.43;;;2.02;100.00
37304;BME280;23188;51.188;16.374;2023-11-21T19:14:37;100508.10;;;2.03;100.00
37304;BME280;23188;51.188;16.374;2023-11-21T19:18:43;100515.02;;;2.04;100.00
37304;BME280;23188;51.188;16.374;2023-11-21T19:22:46;100525.89;;;2.04;100.00
37304;BME280;23188;51.188;16.374;2023-11-21T19:26:49;100534.35;;;2.02;100.00
37304;BME280;23188;51.188;16.374;2023-11-21T19:30:52;100529.48;;;2.01;100.00
37304;BME280;23188;51.188;16.374;2023-11-21T19:34:56;100535.11;;;2.01;100.00
37304;BME280;23188;51.188;16.374;2023-11-21T19:38:59;100535.63;;;2.01;100.00
37304;BME280;23188;51.188;16.374;2023-11-21T19:43:03;100542.17;;;2.03;100.00
37304;BME280;23188;51.188;16.374;2023-11-21T19:47:06;100543.81;;;2.02;100.00
37304;BME280;23188;51.188;16.374;2023-11-21T19:51:09;100540.90;;;2.04;100.00
37304;BME280;23188;51.188;16.374;2023-11-21T19:55:14;100541.98;;;2.04;100.00
37304;BME280;23188;51.188;16.374;2023-11-21T19:59:19;100560.59;;;2.02;100.00
37304;BME280;23188;51.188;16.374;2023-11-21T20:03:24;100566.04;;;2.06;100.00
37304;BME280;23188;51.188;16.374;2023-11-21T20:07:27;100578.52;;;2.04;100.00
37304;BME280;23188;51.188;16.374;2023-11-21T20:11:31;100589.83;;;2.02;100.00
37304;BME280;23188;51.188;16.374;2023-11-21T20:15:34;100598.34;;;1.99;100.00
37304;BME280;23188;51.188;16.374;2023-11-21T20:19:37;100604.92;;;1.96;100.00
37304;BME280;23188;51.188;16.374;2023-11-21T20:23:40;100609.42;;;1.93;100.00
37304;BME280;23188;51.188;16.374;2023-11-21T20:27:45;100617.49;;;1.88;100.00
37304;BME280;23188;51.188;16.374;2023-11-21T20:31:49;100622.93;;;1.83;100.00
37304;BME280;23188;51.188;16.374;2023-11-21T20:35:52;100634.76;;;1.76;100.00
37304;BME280;23188;51.188;16.374;2023-11-21T20:39:56;100637.40;;;1.71;100.00
37304;BME280;23188;51.188;16.374;2023-11-21T20:43:59;100641.45;;;1.70;100.00
37304;BME280;23188;51.188;16.374;2023-11-21T20:48:04;100648.44;;;1.70;100.00
37304;BME280;23188;51.188;16.374;2023-11-21T20:52:09;100653.08;;;1.68;100.00
37304;BME280;23188;51.188;16.374;2023-11-21T20:56:12;100660.23;;;1.63;100.00
37304;BME280;23188;51.188;16.374;2023-11-21T21:00:15;100662.39;;;1.62;100.00
37304;BME280;23188;51.188;16.374;2023-11-21T21:04:21;100669.26;;;1.56;100.00
37304;BME280;23188;51.188;16.374;2023-11-21T21:08:24;100668.92;;;1.55;100.00
37304;BME280;23188;51.188;16.374;2023-11-21T21:12:28;100675.79;;;1.50;100.00
37304;BME280;23188;51.188;16.374;2023-11-21T21:16:31;100684.91;;;1.49;100.00
37304;BME280;23188;51.188;16.374;2023-11-21T21:20:35;100693.26;;;1.50;100.00
37304;BME280;23188;51.188;16.374;2023-11-21T21:24:39;100692.70;;;1.56;100.00